createdAt,value
2019-03-26T00:02:47.610Z,101181.92
2019-03-26T00:07:51.337Z,101188.53
2019-03-26T00:12:54.025Z,101184.05
2019-03-26T00:17:56.648Z,101184.41
2019-03-26T00:22:59.297Z,101203.45
2019-03-26T00:28:01.912Z,101205.49
2019-03-26T00:33:04.591Z,101204.67
2019-03-26T00:38:07.239Z,101214.74
2019-03-26T00:43:09.864Z,101213.41
2019-03-26T00:48:12.482Z,101225.33
2019-03-26T00:53:15.149Z,101215.92
2019-03-26T00:58:19.162Z,101223.56
2019-03-26T01:03:21.773Z,101233.15
2019-03-26T01:08:24.397Z,101238.19
2019-03-26T01:13:27.035Z,101239.30
2019-03-26T01:18:29.651Z,101245.27
2019-03-26T01:23:33.459Z,101242.09
2019-03-26T01:28:36.150Z,101233.98
2019-03-26T01:33:39.874Z,101236.56
2019-03-26T01:38:43.652Z,101236.66
2019-03-26T01:43:46.285Z,101232.47
2019-03-26T01:48:48.950Z,101230.96
2019-03-26T01:53:53.916Z,101222.20
2019-03-26T01:58:57.773Z,101236.83
2019-03-26T02:04:00.383Z,101246.14
2019-03-26T02:09:04.182Z,101237.17
2019-03-26T02:14:06.781Z,101236.80
2019-03-26T02:19:09.431Z,101248.47
2019-03-26T02:24:14.456Z,101247.33
2019-03-26T02:29:17.086Z,101247.45
2019-03-26T02:34:19.784Z,101250.11
2019-03-26T02:39:22.379Z,101250.05
2019-03-26T02:44:24.971Z,101257.31
2019-03-26T02:49:27.658Z,101255.25
2019-03-26T02:54:30.290Z,101254.51
2019-03-26T02:59:32.907Z,101257.00
2019-03-26T03:04:35.588Z,101261.52
2019-03-26T03:09:38.197Z,101258.27
2019-03-26T03:14:43.214Z,101249.23
2019-03-26T03:19:45.871Z,101250.93
2019-03-26T03:24:48.482Z,101259.34
2019-03-26T03:29:51.254Z,101256.27
2019-03-26T03:34:54.013Z,101261.28
2019-03-26T03:39:56.674Z,101269.11
2019-03-26T03:44:59.340Z,101272.06
2019-03-26T03:50:02.030Z,101282.76
2019-03-26T03:55:05.247Z,101278.48
2019-03-26T04:00:29.829Z,101291.28
2019-03-26T04:05:32.560Z,101292.39
2019-03-26T04:10:35.239Z,101293.16
2019-03-26T04:15:37.848Z,101289.62
2019-03-26T04:20:41.697Z,101288.14
2019-03-26T04:25:44.393Z,101292.15
2019-03-26T04:30:47.036Z,101302.48
2019-03-26T04:35:49.682Z,101292.88
2019-03-26T04:40:52.265Z,101301.80
2019-03-26T04:45:54.904Z,101303.16
2019-03-26T04:50:57.548Z,101315.72
2019-03-26T04:56:01.248Z,101315.05
2019-03-26T05:01:03.894Z,101321.84
2019-03-26T05:06:06.594Z,101323.30
2019-03-26T05:11:09.216Z,101332.22
2019-03-26T05:16:11.862Z,101322.27
2019-03-26T05:21:14.552Z,101315.81
2019-03-26T05:26:18.982Z,101313.48
2019-03-26T05:31:21.605Z,101319.67
2019-03-26T05:36:24.271Z,101311.13
2019-03-26T05:41:26.913Z,101314.02
2019-03-26T05:46:29.532Z,101321.92
2019-03-26T05:51:32.159Z,101325.02
2019-03-26T05:56:34.797Z,101316.85
2019-03-26T06:01:37.410Z,101316.77
2019-03-26T06:06:40.277Z,101316.96
2019-03-26T06:11:42.940Z,101318.81
2019-03-26T06:16:45.545Z,101323.86
2019-03-26T06:21:48.141Z,101328.63
2019-03-26T06:26:50.740Z,101334.58
2019-03-26T06:31:53.389Z,101338.13
2019-03-26T06:36:56.009Z,101345.85
2019-03-26T06:41:58.760Z,101343.41
2019-03-26T06:47:01.403Z,101351.32
2019-03-26T06:52:04.232Z,101357.59
2019-03-26T06:57:06.841Z,101359.82
2019-03-26T07:02:10.164Z,101378.48
2019-03-26T07:07:13.196Z,101381.83
2019-03-26T07:12:15.809Z,101375.87
2019-03-26T07:17:18.452Z,101374.56
2019-03-26T07:22:21.072Z,101365.80
2019-03-26T07:27:23.708Z,101375.48
2019-03-26T07:32:26.484Z,101383.22
2019-03-26T07:37:29.141Z,101391.72
2019-03-26T07:42:31.748Z,101397.09
2019-03-26T07:47:34.414Z,101398.42
2019-03-26T07:52:37.068Z,101405.11
2019-03-26T07:57:39.780Z,101412.22
2019-03-26T08:02:46.206Z,101410.27
2019-03-26T08:07:58.213Z,101421.91
2019-03-26T08:12:53.319Z,101419.66
2019-03-26T08:17:56.050Z,101409.80
2019-03-26T08:23:00.690Z,101408.39
2019-03-26T08:28:05.023Z,101405.29
2019-03-26T08:33:08.006Z,101416.41
2019-03-26T08:38:13.404Z,101416.95
2019-03-26T08:43:16.415Z,101411.61
2019-03-26T08:48:18.988Z,101403.20
2019-03-26T08:53:23.369Z,101401.24
2019-03-26T08:58:27.175Z,101408.59
2019-03-26T09:03:29.788Z,101410.77
2019-03-26T09:08:32.399Z,101412.20
2019-03-26T09:13:37.411Z,101402.09
2019-03-26T09:18:40.032Z,101400.48
2019-03-26T09:23:43.863Z,101405.63
2019-03-26T09:28:48.046Z,101400.53
2019-03-26T09:33:50.831Z,101396.04
2019-03-26T09:38:53.431Z,101394.78
2019-03-26T09:43:56.269Z,101397.69
2019-03-26T09:48:58.940Z,101394.70
2019-03-26T09:54:01.545Z,101385.66
2019-03-26T09:59:04.210Z,101385.02
2019-03-26T10:04:08.047Z,101364.00
2019-03-26T10:09:13.060Z,101360.69
2019-03-26T10:14:15.761Z,101344.92
2019-03-26T10:19:18.360Z,101340.98
2019-03-26T10:24:21.041Z,101343.61
2019-03-26T10:29:30.011Z,101349.45
2019-03-26T10:34:28.461Z,101351.16
2019-03-26T10:39:31.182Z,101341.87
2019-03-26T10:44:33.866Z,101327.18
2019-03-26T10:49:37.616Z,101332.89
2019-03-26T10:54:40.281Z,101322.65
2019-03-26T10:59:44.095Z,101329.89
2019-03-26T11:04:46.745Z,101322.17
2019-03-26T11:09:49.329Z,101325.38
2019-03-26T11:14:52.047Z,101317.79
2019-03-26T11:19:54.668Z,101321.66
2019-03-26T11:24:57.393Z,101320.98
2019-03-26T11:30:00.022Z,101324.58
2019-03-26T11:35:04.084Z,101322.63
2019-03-26T11:40:07.588Z,101329.42
2019-03-26T11:45:10.899Z,101318.63
2019-03-26T11:50:14.118Z,101320.91
2019-03-26T11:55:16.784Z,101317.12
2019-03-26T12:00:24.201Z,101302.77
2019-03-26T12:05:27.111Z,101298.97
2019-03-26T12:10:32.811Z,101292.99
2019-03-26T12:15:35.449Z,101282.02
2019-03-26T12:20:37.971Z,101285.50
2019-03-26T12:25:40.632Z,101274.03
2019-03-26T12:30:43.285Z,101288.34
2019-03-26T12:35:45.947Z,101278.20
2019-03-26T12:40:49.044Z,101276.64
2019-03-26T12:45:51.650Z,101276.77
2019-03-26T12:50:54.261Z,101279.41
2019-03-26T12:55:56.842Z,101265.92
2019-03-26T13:00:59.465Z,101277.48
2019-03-26T13:06:02.298Z,101275.05
2019-03-26T13:11:05.005Z,101274.75
2019-03-26T13:16:07.662Z,101270.33
2019-03-26T13:21:10.327Z,101274.02
2019-03-26T13:26:13.705Z,101272.71
2019-03-26T13:31:16.349Z,101255.78
2019-03-26T13:36:19.028Z,101251.38
2019-03-26T13:41:21.780Z,101241.80
2019-03-26T13:46:24.429Z,101241.20
2019-03-26T13:51:27.075Z,101229.85
2019-03-26T13:56:29.888Z,101234.03
2019-03-26T14:01:32.526Z,101235.00
2019-03-26T14:06:35.310Z,101238.79
2019-03-26T14:11:37.902Z,101227.07
2019-03-26T14:16:40.624Z,101238.17
2019-03-26T14:21:43.229Z,101212.02
2019-03-26T14:26:45.906Z,101213.91
2019-03-26T14:31:48.507Z,101235.56
2019-03-26T14:36:51.154Z,101235.21
2019-03-26T14:41:53.841Z,101236.00
2019-03-26T14:46:56.515Z,101234.59
2019-03-26T14:51:59.124Z,101239.99
2019-03-26T14:57:01.801Z,101239.64
2019-03-26T15:02:04.431Z,101245.74
2019-03-26T15:07:07.057Z,101245.88
2019-03-26T15:12:09.720Z,101254.81
2019-03-26T15:17:12.370Z,101249.39
2019-03-26T15:22:14.959Z,101248.92
2019-03-26T15:27:17.652Z,101249.06
2019-03-26T15:32:20.232Z,101252.49
2019-03-26T15:37:22.876Z,101252.00
2019-03-26T15:42:25.509Z,101255.91
2019-03-26T15:47:28.238Z,101259.59
2019-03-26T15:52:30.919Z,101259.70
2019-03-26T15:57:33.624Z,101264.95
2019-03-26T16:02:36.263Z,101266.31
2019-03-26T16:07:38.962Z,101268.45
2019-03-26T16:12:41.710Z,101264.85
2019-03-26T16:17:44.459Z,101266.95
2019-03-26T16:22:47.096Z,101269.37
2019-03-26T16:27:50.733Z,101261.34
2019-03-26T16:32:53.690Z,101259.81
2019-03-26T16:37:56.821Z,101264.80
2019-03-26T16:42:59.450Z,101265.51
2019-03-26T16:48:02.261Z,101266.82
2019-03-26T16:53:04.898Z,101275.73
2019-03-26T16:58:10.321Z,101278.81
2019-03-26T17:03:13.019Z,101281.00
2019-03-26T17:08:15.843Z,101304.48
2019-03-26T17:13:18.472Z,101297.36
2019-03-26T17:18:23.995Z,101296.78
2019-03-26T17:23:27.239Z,101290.50
2019-03-26T17:28:29.852Z,101292.90
2019-03-26T17:33:32.447Z,101301.92
2019-03-26T17:38:35.110Z,101305.39
2019-03-26T17:43:40.105Z,101307.91
2019-03-26T17:48:44.248Z,101301.09
2019-03-26T17:53:46.893Z,101310.58
2019-03-26T17:58:49.838Z,101309.91
2019-03-26T18:03:52.560Z,101318.80
2019-03-26T18:08:59.172Z,101321.10
2019-03-26T18:14:01.817Z,101318.66
2019-03-26T18:19:04.589Z,101333.88
2019-03-26T18:24:08.379Z,101324.71
2019-03-26T18:29:11.090Z,101331.02
2019-03-26T18:34:13.749Z,101340.18
2019-03-26T18:39:16.562Z,101339.59
2019-03-26T18:44:22.019Z,101338.22
2019-03-26T18:49:24.790Z,101348.10
2019-03-26T18:54:27.782Z,101354.14
2019-03-26T18:59:33.077Z,101356.66
2019-03-26T19:04:35.826Z,101364.34
2019-03-26T19:09:40.920Z,101360.91
2019-03-26T19:14:43.642Z,101374.76
2019-03-26T19:19:46.339Z,101379.12
2019-03-26T19:24:48.990Z,101374.97
2019-03-26T19:29:58.811Z,101383.98
2019-03-26T19:35:01.493Z,101393.36
2019-03-26T19:40:05.724Z,101396.41
2019-03-26T19:45:09.816Z,101401.82
2019-03-26T19:50:13.862Z,101410.95
2019-03-26T19:55:16.740Z,101405.75
2019-03-26T20:00:19.765Z,101403.86
2019-03-26T20:05:22.717Z,101423.33
2019-03-26T20:10:25.633Z,101431.91
2019-03-26T20:15:28.507Z,101427.97
2019-03-26T20:20:31.264Z,101424.34
2019-03-26T20:25:33.937Z,101438.73
2019-03-26T20:30:37.850Z,101443.33
2019-03-26T20:35:40.803Z,101443.17
2019-03-26T20:40:43.935Z,101460.13
2019-03-26T20:45:46.594Z,101456.32
2019-03-26T20:50:49.304Z,101460.27
2019-03-26T20:55:54.561Z,101462.34
2019-03-26T21:00:57.589Z,101470.92
2019-03-26T21:06:00.213Z,101485.13
2019-03-26T21:11:04.020Z,101483.57
2019-03-26T21:16:06.745Z,101482.79
2019-03-26T21:21:09.404Z,101485.84
2019-03-26T21:26:12.165Z,101482.21
2019-03-26T21:31:14.814Z,101488.39
2019-03-26T21:36:17.405Z,101495.09
2019-03-26T21:41:20.076Z,101494.72
2019-03-26T21:46:22.688Z,101491.49
2019-03-26T21:51:25.294Z,101494.49
2019-03-26T21:56:28.004Z,101493.23
2019-03-26T22:01:31.570Z,101494.98
2019-03-26T22:06:34.221Z,101503.25
2019-03-26T22:11:49.246Z,101504.10
2019-03-26T22:16:41.597Z,101521.34
2019-03-26T22:21:44.276Z,101514.52
2019-03-26T22:26:46.986Z,101522.53
2019-03-26T22:31:49.618Z,101522.45
2019-03-26T22:36:52.274Z,101525.80
2019-03-26T22:41:55.111Z,101539.66
2019-03-26T22:46:57.736Z,101537.58
2019-03-26T22:52:00.399Z,101543.02
2019-03-26T22:57:06.340Z,101554.88
2019-03-26T23:02:08.820Z,101553.61
2019-03-26T23:07:11.462Z,101554.80
2019-03-26T23:12:14.098Z,101564.36
2019-03-26T23:17:16.767Z,101563.62
2019-03-26T23:22:19.363Z,101563.98
2019-03-26T23:27:21.967Z,101564.19
2019-03-26T23:32:24.574Z,101567.38
2019-03-26T23:37:27.185Z,101572.15
2019-03-26T23:42:29.911Z,101573.28
2019-03-26T23:47:33.960Z,101571.71
2019-03-26T23:52:36.548Z,101578.98
2019-03-26T23:57:42.753Z,101584.11
